Webkamera Lisätietoa Webcam


Yksityisiä sääasemia lähellä:

Sääasema Juupajoki

Sääasema Orivesi

Sääasema Muurame

Sääasema Jyväskylä

Sääasema Vihtavuori


Löydät sääaseman tiedot myös:

Finland Weather Exchange

European Weather Network

Weather Underground

AWEKAS

Windy.com

HAMweather, WeatherForYou, PWS Weather



Säätiedot lähimmiltä METAR asemilta

   
EFHA - Halli (Fin-Afb), Finland
Etäisyys asemalta: Kaakko 25 km
Päivitetty: 25.06.2022 13:50
Selkeää  
Selkeää  
   Tuuli: Etelälounas 3.6 m/s
Tuuli: Etelälounas 3.6 m/s
Lämpötila: 26°C
Kastepiste: 11°C
Kosteus: 39%
Ilmanpaine: 1019 hPa
Näkyvyys: Enemmän kuin 10 km
Pilvitiedot: Selkeää
EFHA 251050Z AUTO 20007KT 120V220 CAVOK 26/11 Q1019
EFJY - Jyvaskyla (Mil/Civ), Finland
Etäisyys asemalta: Koillinen 75 km
Päivitetty: 25.06.2022 13:50
Selkeää  
Selkeää  
   Tuuli: Etelälounas 3.1 m/s
Tuuli: Etelälounas 3.1 m/s
Lämpötila: 27°C
Tukaluus: 27°C
Kastepiste: 15°C
Kosteus: 48%
Ilmanpaine: 1018 hPa
Näkyvyys: Enemmän kuin 10 km
Pilvitiedot: Selkeää
EFJY 251050Z AUTO 21006KT 120V260 CAVOK 27/15 Q1018
EFTP - Tampere/Pirkkala, Finland
Etäisyys asemalta: Lounas 81 km
Päivitetty: 25.06.2022 13:50
Selkeää  
Selkeää  
   Tuuli: Lounas 2.6 m/s
Tuuli: Lounas 2.6 m/s
Lämpötila: 26°C
Kastepiste: 13°C
Kosteus: 45%
Ilmanpaine: 1019 hPa
Näkyvyys: Enemmän kuin 10 km
Pilvitiedot: Selkeää
EFTP 251050Z AUTO 23005KT 130V300 CAVOK 26/13 Q1019
EFSI - Seinajoki-Ilmajoki, Finland
Etäisyys asemalta: Luode 114 km
Päivitetty: 25.06.2022 13:50
Selkeää  
Selkeää  
   Tuuli: Lounas 4.1 m/s
Tuuli: Lounas 4.1 m/s
Lämpötila: 26°C
Kastepiste: 12°C
Kosteus: 42%
Ilmanpaine: 1017 hPa
Näkyvyys: Enemmän kuin 10 km
Pilvitiedot: Selkeää
EFSI 251050Z AUTO 23008KT 190V270 CAVOK 26/12 Q1017
EFMI - Mikkeli, Finland
Etäisyys asemalta: Itäkaakko 147 km
Päivitetty: 25.06.2022 13:50
Selkeää  
Selkeää  
   Tuuli: Länsilounas 2.1 m/s
Tuuli: Länsilounas 2.1 m/s
Lämpötila: 27°C
Tukaluus: 27°C
Kastepiste: 14°C
Kosteus: 45%
Ilmanpaine: 1019 hPa
Näkyvyys: Enemmän kuin 10 km
Pilvitiedot: Selkeää
EFMI 251050Z AUTO 25004KT 210V310 CAVOK 27/14 Q1019
EFPO - Pori (Mil/Civ), Finland
Etäisyys asemalta: Länsilounas 154 km
Päivitetty: 25.06.2022 13:50
Selkeää  
Selkeää  
   Tuuli: Länsilounas 4.6 m/s
Tuuli: Länsilounas 4.6 m/s
Lämpötila: 26°C
Kastepiste: 12°C
Kosteus: 42%
Ilmanpaine: 1018 hPa
Näkyvyys: Enemmän kuin 10 km
Pilvitiedot: Selkeää
EFPO 251050Z AUTO 24009KT 200V270 CAVOK 26/12 Q1018
EFUT - Utti (Fin-Afb), Finland
Etäisyys asemalta: Kaakko 180 km
Päivitetty: 25.06.2022 13:50
Selkeää  
Selkeää  
   Tuuli: Länsi 4.1 m/s
Tuuli: Länsi 4.1 m/s
Lämpötila: 27°C
Kastepiste: 12°C
Kosteus: 39%
Ilmanpaine: 1019 hPa
Näkyvyys: Enemmän kuin 10 km
Pilvitiedot: Selkeää
EFUT 251050Z AUTO 26008KT 220V300 CAVOK 27/12 Q1019
EFVA - Vaasa, Finland
Etäisyys asemalta: Luode 180 km
Päivitetty: 25.06.2022 13:50
Selkeää  
Selkeää  
   Tuuli: Etelälounas 5.7 m/s
Tuuli: Etelälounas 5.7 m/s
Lämpötila: 25°C
Kastepiste: 13°C
Kosteus: 47%
Ilmanpaine: 1017 hPa
Näkyvyys: Enemmän kuin 10 km
Pilvitiedot: Selkeää
EFVA 251050Z AUTO 20011KT CAVOK 25/13 Q1017
EFHK - Helsinki/Vantaa, Finland
Etäisyys asemalta: Etelä 191 km
Päivitetty: 25.06.2022 13:50
Selkeää  
Selkeää  
   Tuuli: Etelä 3.6 m/s
Tuuli: Etelä 3.6 m/s
Lämpötila: 25°C
Kastepiste: 14°C
Kosteus: 51%
Ilmanpaine: 1019 hPa
Näkyvyys: Enemmän kuin 10 km
Pilvitiedot: Selkeää
EFHK 251050Z 17007KT 120V240 CAVOK 25/14 Q1019 NOSIG

Alkuperäinen skripti  Saratoga-weather.org Sovitettu myös templatelle  Weerstation Leuven

Laitteet joita käytämme:

Sääasema
Davis VP2

Sääasemaohjelma
Cumulus

Sääaseman palvelin
HP ProBook 6460b

Palveluntarjoaja
Radicenter

Davis VP2

Cumulus

HP ProBook 6460b

Radicenter




Flag Counter Cumulus Top Weather Sites